createdAt,value
2018-06-07T00:00:44.059Z,100.00
2018-06-07T00:01:46.824Z,100.00
2018-06-07T00:02:50.807Z,100.00
2018-06-07T00:03:53.688Z,100.00
2018-06-07T00:04:57.153Z,100.00
2018-06-07T00:05:59.948Z,100.00
2018-06-07T00:07:02.806Z,100.00
2018-06-07T00:08:06.175Z,100.00
2018-06-07T00:09:11.316Z,100.00
2018-06-07T00:10:14.136Z,100.00
2018-06-07T00:11:17.577Z,100.00
2018-06-07T00:12:23.521Z,100.00
2018-06-07T00:13:26.427Z,100.00
2018-06-07T00:14:30.037Z,100.00
2018-06-07T00:15:33.112Z,100.00
2018-06-07T00:16:35.942Z,100.00
2018-06-07T00:17:38.707Z,100.00
2018-06-07T00:18:42.168Z,100.00
2018-06-07T00:19:45.927Z,100.00
2018-06-07T00:20:48.737Z,100.00
2018-06-07T00:21:51.849Z,100.00
2018-06-07T00:22:54.669Z,100.00
2018-06-07T00:23:57.495Z,100.00
2018-06-07T00:25:03.801Z,100.00
2018-06-07T00:26:06.627Z,100.00
2018-06-07T00:27:09.413Z,100.00
2018-06-07T00:28:15.260Z,100.00
2018-06-07T00:29:18.075Z,100.00
2018-06-07T00:30:20.961Z,100.00
2018-06-07T00:31:23.799Z,100.00
2018-06-07T00:32:26.603Z,100.00
2018-06-07T00:33:29.428Z,100.00
2018-06-07T00:34:33.148Z,100.00
2018-06-07T00:35:43.307Z,100.00
2018-06-07T00:36:46.110Z,100.00
2018-06-07T00:37:48.905Z,100.00
2018-06-07T00:38:51.705Z,100.00
2018-06-07T00:39:54.524Z,100.00
2018-06-07T00:40:58.335Z,100.00
2018-06-07T00:42:01.139Z,100.00
2018-06-07T00:43:04.960Z,100.00
2018-06-07T00:44:07.761Z,100.00
2018-06-07T00:45:10.602Z,100.00
2018-06-07T00:46:13.414Z,100.00
2018-06-07T00:47:16.492Z,100.00
2018-06-07T00:48:19.378Z,100.00
2018-06-07T00:49:22.217Z,100.00
2018-06-07T00:50:25.625Z,100.00
2018-06-07T00:51:29.261Z,100.00
2018-06-07T00:52:32.062Z,100.00
2018-06-07T00:53:35.175Z,100.00
2018-06-07T00:54:37.971Z,100.00
2018-06-07T00:55:40.756Z,100.00
2018-06-07T00:56:43.573Z,100.00
2018-06-07T00:57:46.418Z,100.00
2018-06-07T00:58:51.499Z,100.00
2018-06-07T00:59:57.092Z,100.00
2018-06-07T01:01:00.451Z,100.00
2018-06-07T01:02:04.455Z,100.00
2018-06-07T01:03:07.261Z,100.00
2018-06-07T01:04:10.047Z,100.00
2018-06-07T01:05:13.407Z,100.00
2018-06-07T01:06:16.525Z,100.00
2018-06-07T01:07:19.841Z,100.00
2018-06-07T01:08:23.571Z,100.00
2018-06-07T01:09:29.103Z,100.00
2018-06-07T01:10:31.936Z,100.00
2018-06-07T01:11:34.778Z,100.00
2018-06-07T01:12:37.872Z,100.00
2018-06-07T01:13:41.336Z,100.00
2018-06-07T01:14:59.360Z,100.00
2018-06-07T01:16:06.590Z,100.00
2018-06-07T01:17:09.400Z,100.00
2018-06-07T01:19:20.503Z,100.00
2018-06-07T01:20:23.301Z,100.00
2018-06-07T01:21:26.279Z,100.00
2018-06-07T01:22:29.102Z,100.00
2018-06-07T01:23:31.928Z,100.00
2018-06-07T01:24:35.384Z,100.00
2018-06-07T01:25:38.471Z,100.00
2018-06-07T01:26:41.270Z,100.00
2018-06-07T01:27:44.689Z,100.00
2018-06-07T01:28:47.507Z,100.00
2018-06-07T01:29:53.697Z,100.00
2018-06-07T01:31:01.757Z,100.00
2018-06-07T01:32:05.484Z,100.00
2018-06-07T01:33:13.182Z,100.00
2018-06-07T01:34:16.127Z,100.00
2018-06-07T01:35:18.896Z,100.00
2018-06-07T01:36:23.268Z,100.00
2018-06-07T01:37:26.340Z,100.00
2018-06-07T01:38:31.003Z,100.00
2018-06-07T01:39:33.807Z,100.00
2018-06-07T01:40:36.585Z,100.00
2018-06-07T01:41:39.412Z,100.00
2018-06-07T01:42:42.221Z,100.00
2018-06-07T01:43:45.324Z,100.00
2018-06-07T01:44:48.149Z,100.00
2018-06-07T01:45:51.621Z,100.00
2018-06-07T01:46:54.398Z,100.00
2018-06-07T01:48:01.739Z,100.00
2018-06-07T01:49:04.529Z,100.00
2018-06-07T01:50:07.632Z,100.00
2018-06-07T01:51:10.601Z,100.00
2018-06-07T01:52:13.759Z,100.00
2018-06-07T01:53:16.554Z,100.00
2018-06-07T01:54:19.358Z,100.00
2018-06-07T01:55:22.297Z,100.00
2018-06-07T01:56:25.384Z,100.00
2018-06-07T01:57:28.715Z,100.00
2018-06-07T01:58:31.829Z,100.00
2018-06-07T01:59:35.145Z,100.00
2018-06-07T02:00:37.993Z,100.00
2018-06-07T02:01:40.818Z,100.00
2018-06-07T02:02:45.490Z,100.00
2018-06-07T02:03:48.286Z,100.00
2018-06-07T02:04:51.110Z,100.00
2018-06-07T02:05:53.911Z,100.00
2018-06-07T02:06:57.694Z,100.00
2018-06-07T02:08:00.470Z,100.00
2018-06-07T02:09:05.103Z,100.00
2018-06-07T02:10:07.881Z,100.00
2018-06-07T02:11:11.004Z,100.00
2018-06-07T02:12:13.821Z,100.00
2018-06-07T02:13:16.613Z,100.00
2018-06-07T02:14:19.426Z,100.00
2018-06-07T02:15:22.557Z,100.00
2018-06-07T02:16:25.325Z,100.00
2018-06-07T02:17:29.349Z,100.00
2018-06-07T02:18:32.449Z,100.00
2018-06-07T02:19:35.217Z,100.00
2018-06-07T02:20:38.026Z,100.00
2018-06-07T02:21:41.100Z,100.00
2018-06-07T02:22:43.946Z,100.00
2018-06-07T02:23:46.739Z,100.00
2018-06-07T02:24:49.503Z,100.00
2018-06-07T02:25:52.489Z,100.00
2018-06-07T02:26:55.241Z,100.00
2018-06-07T02:27:58.309Z,100.00
2018-06-07T02:29:01.081Z,100.00
2018-06-07T02:30:04.961Z,100.00
2018-06-07T02:31:07.751Z,100.00
2018-06-07T02:32:10.527Z,100.00
2018-06-07T02:33:13.303Z,100.00
2018-06-07T02:34:16.347Z,100.00
2018-06-07T02:35:19.130Z,100.00
2018-06-07T02:36:21.890Z,100.00
2018-06-07T02:37:24.710Z,100.00
2018-06-07T02:38:27.488Z,100.00
2018-06-07T02:39:30.237Z,100.00
2018-06-07T02:40:33.281Z,100.00
2018-06-07T02:41:36.073Z,100.00
2018-06-07T02:42:38.952Z,100.00
2018-06-07T02:43:41.694Z,100.00
2018-06-07T02:44:44.467Z,100.00
2018-06-07T02:45:47.237Z,100.00
2018-06-07T02:46:50.339Z,100.00
2018-06-07T02:47:53.113Z,100.00
2018-06-07T02:48:56.400Z,100.00
2018-06-07T02:49:59.834Z,100.00
2018-06-07T02:51:02.630Z,100.00
2018-06-07T02:52:05.386Z,100.00
2018-06-07T02:53:08.430Z,100.00
2018-06-07T02:54:11.193Z,100.00
2018-06-07T02:55:13.961Z,100.00
2018-06-07T02:56:16.712Z,100.00
2018-06-07T02:57:20.192Z,100.00
2018-06-07T02:58:22.972Z,100.00
2018-06-07T02:59:26.085Z,100.00
2018-06-07T03:00:28.843Z,100.00
2018-06-07T03:01:31.611Z,100.00
2018-06-07T03:02:34.395Z,100.00
2018-06-07T03:03:37.132Z,100.00
2018-06-07T03:04:39.962Z,100.00
2018-06-07T03:05:43.052Z,100.00
2018-06-07T03:06:45.860Z,100.00
2018-06-07T03:07:48.613Z,100.00
2018-06-07T03:08:52.029Z,100.00
2018-06-07T03:09:54.796Z,100.00
2018-06-07T03:10:57.563Z,100.00
2018-06-07T03:12:00.666Z,100.00
2018-06-07T03:13:03.403Z,100.00
2018-06-07T03:14:06.167Z,100.00
2018-06-07T03:15:08.999Z,100.00
2018-06-07T03:16:11.786Z,100.00
2018-06-07T03:17:14.557Z,100.00
2018-06-07T03:18:17.631Z,100.00
2018-06-07T03:19:20.435Z,100.00
2018-06-07T03:20:25.341Z,100.00
2018-06-07T03:21:28.126Z,100.00
2018-06-07T03:22:31.710Z,100.00
2018-06-07T03:23:36.108Z,100.00
2018-06-07T03:24:39.194Z,100.00
2018-06-07T03:25:42.002Z,100.00
2018-06-07T03:26:44.770Z,100.00
2018-06-07T03:27:47.575Z,100.00
2018-06-07T03:28:50.333Z,100.00
2018-06-07T03:29:53.256Z,100.00
2018-06-07T03:30:56.373Z,100.00
2018-06-07T03:31:59.468Z,100.00
2018-06-07T03:33:02.225Z,100.00
2018-06-07T03:34:05.040Z,100.00
2018-06-07T03:35:07.850Z,100.00
2018-06-07T03:36:10.619Z,100.00
2018-06-07T03:37:13.707Z,100.00
2018-06-07T03:38:16.502Z,100.00
2018-06-07T03:39:19.301Z,100.00
2018-06-07T03:40:22.102Z,100.00
2018-06-07T03:41:24.868Z,100.00
2018-06-07T03:42:27.652Z,100.00
2018-06-07T03:43:30.717Z,100.00
2018-06-07T03:44:36.256Z,100.00
2018-06-07T03:45:39.031Z,100.00
2018-06-07T03:46:41.848Z,100.00
2018-06-07T03:47:45.592Z,100.00
2018-06-07T03:48:48.369Z,100.00
2018-06-07T03:49:51.708Z,100.00
2018-06-07T03:50:58.330Z,100.00
2018-06-07T03:52:04.693Z,100.00
2018-06-07T03:53:08.688Z,100.00
2018-06-07T03:54:14.300Z,100.00
2018-06-07T03:55:17.083Z,100.00
2018-06-07T03:56:19.940Z,100.00
2018-06-07T03:57:22.724Z,100.00
2018-06-07T03:58:25.512Z,100.00
2018-06-07T03:59:28.274Z,100.00
2018-06-07T04:00:31.350Z,100.00
2018-06-07T04:01:34.149Z,100.00
2018-06-07T04:02:37.904Z,100.00
2018-06-07T04:03:41.572Z,100.00
2018-06-07T04:04:44.341Z,100.00
2018-06-07T04:05:47.095Z,100.00
2018-06-07T04:06:50.206Z,100.00
2018-06-07T04:07:53.021Z,100.00
2018-06-07T04:08:55.782Z,100.00
2018-06-07T04:09:58.585Z,100.00
2018-06-07T04:11:02.271Z,100.00
2018-06-07T04:12:05.059Z,100.00
2018-06-07T04:13:08.944Z,100.00
2018-06-07T04:14:11.792Z,100.00
2018-06-07T04:15:14.629Z,100.00
2018-06-07T04:16:17.364Z,100.00
2018-06-07T04:17:20.180Z,100.00
2018-06-07T04:18:22.949Z,100.00
2018-06-07T04:19:26.080Z,100.00
2018-06-07T04:20:28.837Z,100.00
2018-06-07T04:21:31.622Z,100.00
2018-06-07T04:22:36.756Z,100.00
2018-06-07T04:23:39.528Z,100.00
2018-06-07T04:24:42.283Z,100.00
2018-06-07T04:25:45.349Z,100.00
2018-06-07T04:26:48.112Z,100.00
2018-06-07T04:27:50.894Z,100.00
2018-06-07T04:28:53.690Z,100.00
2018-06-07T04:29:56.460Z,100.00
2018-06-07T04:30:59.209Z,100.00
2018-06-07T04:32:03.420Z,100.00
2018-06-07T04:33:06.172Z,100.00
2018-06-07T04:34:08.953Z,100.00
2018-06-07T04:35:11.700Z,100.00
2018-06-07T04:36:14.473Z,100.00
2018-06-07T04:37:17.216Z,100.00
2018-06-07T04:38:21.320Z,100.00
2018-06-07T04:39:27.273Z,100.00
2018-06-07T04:40:30.551Z,100.00
2018-06-07T04:41:33.360Z,100.00
2018-06-07T04:42:36.206Z,100.00
2018-06-07T04:43:38.989Z,100.00
2018-06-07T04:44:41.760Z,100.00
2018-06-07T04:45:44.533Z,100.00
2018-06-07T04:46:47.984Z,100.00
2018-06-07T04:47:50.733Z,100.00
2018-06-07T04:48:53.528Z,100.00
2018-06-07T04:49:56.963Z,100.00
2018-06-07T04:51:01.586Z,100.00
2018-06-07T04:52:05.123Z,100.00
2018-06-07T04:53:08.785Z,100.00
2018-06-07T04:54:13.604Z,100.00
2018-06-07T04:55:16.408Z,100.00
2018-06-07T04:56:19.202Z,100.00
2018-06-07T04:57:22.266Z,100.00
2018-06-07T04:58:25.025Z,100.00
2018-06-07T04:59:27.802Z,100.00
2018-06-07T05:00:30.591Z,100.00
2018-06-07T05:01:34.217Z,100.00
2018-06-07T05:02:38.481Z,100.00
2018-06-07T05:03:42.925Z,100.00
2018-06-07T05:04:46.008Z,100.00
2018-06-07T05:05:48.953Z,100.00
2018-06-07T05:06:51.855Z,100.00
2018-06-07T05:07:58.535Z,100.00
2018-06-07T05:09:01.456Z,100.00
2018-06-07T05:10:05.761Z,100.00
2018-06-07T05:11:08.854Z,100.00
2018-06-07T05:12:11.651Z,100.00
2018-06-07T05:13:14.498Z,100.00
2018-06-07T05:14:17.361Z,100.00
2018-06-07T05:15:20.616Z,100.00
2018-06-07T05:16:23.819Z,100.00
2018-06-07T05:17:26.623Z,100.00
2018-06-07T05:18:29.405Z,100.00
2018-06-07T05:19:32.220Z,100.00
2018-06-07T05:20:34.995Z,100.00
2018-06-07T05:21:37.809Z,100.00
2018-06-07T05:22:44.789Z,100.00
2018-06-07T05:23:51.211Z,100.00
2018-06-07T05:25:15.281Z,100.00
2018-06-07T05:26:18.084Z,100.00
2018-06-07T05:27:20.841Z,100.00
2018-06-07T05:28:23.665Z,100.00
2018-06-07T05:29:26.730Z,100.00
2018-06-07T05:30:29.525Z,100.00
2018-06-07T05:31:32.449Z,100.00
2018-06-07T05:32:35.245Z,100.00
2018-06-07T05:33:38.038Z,100.00
2018-06-07T05:34:41.287Z,100.00
2018-06-07T05:35:44.479Z,100.00
2018-06-07T05:36:47.244Z,100.00
2018-06-07T05:37:50.059Z,100.00
2018-06-07T05:38:52.919Z,100.00
2018-06-07T05:39:55.696Z,100.00
2018-06-07T05:40:58.454Z,100.00
2018-06-07T05:42:01.699Z,100.00
2018-06-07T05:43:04.502Z,100.00
2018-06-07T05:44:07.336Z,100.00
2018-06-07T05:45:10.103Z,100.00
2018-06-07T05:46:14.378Z,100.00
2018-06-07T05:47:17.988Z,100.00
2018-06-07T05:48:21.183Z,100.00
2018-06-07T05:49:24.803Z,100.00
2018-06-07T05:50:28.370Z,100.00
2018-06-07T05:51:31.152Z,100.00
2018-06-07T05:52:34.061Z,100.00
2018-06-07T05:53:36.822Z,100.00
2018-06-07T05:54:42.668Z,100.00
2018-06-07T05:55:46.053Z,100.00
2018-06-07T05:56:49.791Z,100.00
2018-06-07T05:57:52.621Z,100.00
2018-06-07T05:58:55.494Z,100.00
2018-06-07T05:59:58.385Z,100.00
2018-06-07T06:01:02.350Z,100.00
2018-06-07T06:02:06.151Z,100.00
2018-06-07T06:03:08.945Z,100.00
2018-06-07T06:04:11.840Z,100.00
2018-06-07T06:05:14.632Z,100.00
2018-06-07T06:06:18.353Z,100.00
2018-06-07T06:07:21.776Z,100.00
2018-06-07T06:08:24.607Z,100.00
2018-06-07T06:09:27.446Z,100.00
2018-06-07T06:10:30.251Z,100.00
2018-06-07T06:11:33.244Z,100.00
2018-06-07T06:12:37.029Z,100.00
2018-06-07T06:13:39.819Z,100.00
2018-06-07T06:14:43.214Z,100.00
2018-06-07T06:15:45.959Z,100.00
2018-06-07T06:16:49.586Z,100.00
2018-06-07T06:17:52.403Z,100.00
2018-06-07T06:18:55.286Z,100.00
2018-06-07T06:19:58.299Z,100.00
2018-06-07T06:21:01.108Z,100.00
2018-06-07T06:22:03.948Z,100.00
2018-06-07T06:23:06.734Z,100.00
2018-06-07T06:24:10.601Z,100.00
2018-06-07T06:25:14.317Z,100.00
2018-06-07T06:26:17.169Z,100.00
2018-06-07T06:27:19.941Z,100.00
2018-06-07T06:28:24.313Z,100.00
2018-06-07T06:29:27.185Z,100.00
2018-06-07T06:30:30.127Z,100.00
2018-06-07T06:31:33.369Z,100.00
2018-06-07T06:32:36.215Z,100.00
2018-06-07T06:33:40.365Z,100.00
2018-06-07T06:34:43.846Z,100.00
2018-06-07T06:35:47.123Z,100.00
2018-06-07T06:36:50.293Z,100.00
2018-06-07T06:37:53.741Z,100.00
2018-06-07T06:38:58.159Z,100.00
2018-06-07T06:40:01.332Z,100.00
2018-06-07T06:41:04.484Z,100.00
2018-06-07T06:42:07.459Z,100.00
2018-06-07T06:43:10.917Z,100.00
2018-06-07T06:44:14.388Z,100.00
2018-06-07T06:45:17.462Z,100.00
2018-06-07T06:46:20.750Z,100.00
2018-06-07T06:47:24.001Z,100.00
2018-06-07T06:48:28.730Z,100.00
2018-06-07T06:49:31.896Z,100.00
2018-06-07T06:50:36.569Z,100.00
2018-06-07T06:51:40.779Z,100.00
2018-06-07T06:52:43.622Z,100.00
2018-06-07T06:53:46.456Z,100.00
2018-06-07T06:54:49.435Z,100.00
2018-06-07T06:55:52.370Z,100.00
2018-06-07T06:56:55.474Z,100.00
2018-06-07T06:57:58.347Z,100.00
2018-06-07T06:59:03.128Z,100.00
2018-06-07T07:00:09.892Z,100.00
2018-06-07T07:01:13.502Z,100.00
2018-06-07T07:02:17.806Z,100.00
2018-06-07T07:03:21.225Z,100.00
2018-06-07T07:04:24.965Z,100.00
2018-06-07T07:05:27.757Z,100.00
2018-06-07T07:06:31.599Z,100.00
2018-06-07T07:07:34.408Z,100.00
2018-06-07T07:08:37.229Z,100.00
2018-06-07T07:09:40.561Z,100.00
2018-06-07T07:10:43.365Z,100.00
2018-06-07T07:11:46.169Z,100.00
2018-06-07T07:12:48.952Z,100.00
2018-06-07T07:13:51.791Z,100.00
2018-06-07T07:14:56.574Z,100.00
2018-06-07T07:16:02.840Z,100.00
2018-06-07T07:17:06.817Z,100.00
2018-06-07T07:18:09.651Z,100.00
2018-06-07T07:19:12.715Z,100.00
2018-06-07T07:20:15.514Z,100.00
2018-06-07T07:21:24.765Z,100.00
2018-06-07T07:22:30.260Z,100.00
2018-06-07T07:23:33.289Z,100.00
2018-06-07T07:24:36.072Z,100.00
2018-06-07T07:25:39.732Z,100.00
2018-06-07T07:26:42.588Z,100.00
2018-06-07T07:27:45.833Z,100.00
2018-06-07T07:28:48.731Z,100.00
2018-06-07T07:29:51.573Z,100.00
2018-06-07T07:30:55.048Z,100.00
2018-06-07T07:31:57.891Z,100.00
2018-06-07T07:33:00.669Z,100.00
2018-06-07T07:34:04.197Z,100.00
2018-06-07T07:35:07.993Z,100.00
2018-06-07T07:36:10.818Z,100.00
2018-06-07T07:37:13.805Z,100.00
2018-06-07T07:38:16.761Z,100.00
2018-06-07T07:39:20.805Z,100.00
2018-06-07T07:40:24.703Z,100.00
2018-06-07T07:41:27.489Z,100.00
2018-06-07T07:42:30.640Z,100.00
2018-06-07T07:43:34.092Z,100.00
2018-06-07T07:44:36.965Z,100.00
2018-06-07T07:45:40.191Z,100.00
2018-06-07T07:47:44.048Z,100.00
2018-06-07T07:48:47.216Z,100.00
2018-06-07T07:49:50.203Z,100.00
2018-06-07T07:50:53.792Z,100.00
2018-06-07T07:51:59.491Z,100.00
2018-06-07T07:53:03.220Z,100.00
2018-06-07T07:54:06.078Z,100.00
2018-06-07T07:55:09.642Z,100.00
2018-06-07T07:56:12.432Z,100.00
2018-06-07T07:57:15.295Z,100.00
2018-06-07T07:58:18.676Z,100.00
2018-06-07T07:59:21.712Z,100.00
2018-06-07T08:00:26.079Z,100.00
2018-06-07T08:01:29.079Z,100.00
2018-06-07T08:02:31.905Z,100.00
2018-06-07T08:03:35.432Z,100.00
2018-06-07T08:04:38.690Z,100.00
2018-06-07T08:05:43.715Z,100.00
2018-06-07T08:06:46.817Z,100.00
2018-06-07T08:07:49.658Z,100.00
2018-06-07T08:08:52.450Z,100.00
2018-06-07T08:09:55.409Z,100.00
2018-06-07T08:10:58.780Z,100.00
2018-06-07T08:12:01.596Z,100.00
2018-06-07T08:13:04.925Z,100.00
2018-06-07T08:14:08.046Z,100.00
2018-06-07T08:16:25.607Z,100.00
2018-06-07T08:17:28.750Z,100.00
2018-06-07T08:18:31.904Z,100.00
2018-06-07T08:19:34.744Z,100.00
2018-06-07T08:20:37.734Z,100.00
2018-06-07T08:21:40.550Z,100.00
2018-06-07T08:22:43.755Z,100.00
2018-06-07T08:23:46.582Z,100.00
2018-06-07T08:24:50.280Z,100.00
2018-06-07T08:25:53.670Z,100.00
2018-06-07T08:26:56.802Z,100.00
2018-06-07T08:27:59.653Z,100.00
2018-06-07T08:29:02.842Z,100.00
2018-06-07T08:30:05.646Z,100.00
2018-06-07T08:31:08.518Z,100.00
2018-06-07T08:32:13.065Z,100.00
2018-06-07T08:33:15.872Z,100.00
2018-06-07T08:34:19.377Z,100.00
2018-06-07T08:35:23.503Z,100.00
2018-06-07T08:36:26.464Z,100.00
2018-06-07T08:37:29.291Z,100.00
2018-06-07T08:38:32.086Z,100.00
2018-06-07T08:39:34.963Z,100.00
2018-06-07T08:40:37.797Z,100.00
2018-06-07T08:41:42.666Z,100.00
2018-06-07T08:42:45.458Z,100.00
2018-06-07T08:43:48.256Z,100.00
2018-06-07T08:44:52.687Z,100.00
2018-06-07T08:45:55.475Z,100.00
2018-06-07T08:46:58.312Z,100.00
2018-06-07T08:48:03.517Z,100.00
2018-06-07T08:49:06.947Z,100.00
2018-06-07T08:50:09.829Z,100.00
2018-06-07T08:51:12.660Z,100.00
2018-06-07T08:52:15.480Z,100.00
2018-06-07T08:53:18.675Z,100.00
2018-06-07T08:54:21.779Z,100.00
2018-06-07T08:55:24.591Z,100.00
2018-06-07T08:56:27.981Z,100.00
2018-06-07T08:57:31.600Z,100.00
2018-06-07T08:58:34.916Z,100.00
2018-06-07T08:59:45.329Z,100.00
2018-06-07T09:00:48.195Z,100.00
2018-06-07T09:01:51.958Z,100.00
2018-06-07T09:02:54.748Z,100.00
2018-06-07T09:03:57.588Z,100.00
2018-06-07T09:05:00.396Z,100.00
2018-06-07T09:06:03.985Z,100.00
2018-06-07T09:07:06.833Z,100.00
2018-06-07T09:08:10.889Z,100.00
2018-06-07T09:09:13.831Z,100.00
2018-06-07T09:10:16.621Z,100.00
2018-06-07T09:11:20.852Z,100.00
2018-06-07T09:12:24.181Z,100.00
2018-06-07T09:13:28.557Z,100.00
2018-06-07T09:14:32.240Z,100.00
2018-06-07T09:15:36.083Z,100.00
2018-06-07T09:16:38.865Z,100.00
2018-06-07T09:17:41.802Z,100.00
2018-06-07T09:18:44.597Z,100.00
2018-06-07T09:19:48.010Z,100.00
2018-06-07T09:20:50.820Z,100.00
2018-06-07T09:21:54.244Z,100.00
2018-06-07T09:22:57.600Z,100.00
2018-06-07T09:24:00.799Z,100.00
2018-06-07T09:25:03.651Z,100.00
2018-06-07T09:26:06.554Z,100.00
2018-06-07T09:27:09.741Z,100.00
2018-06-07T09:28:12.622Z,100.00
2018-06-07T09:29:15.510Z,100.00
2018-06-07T09:30:18.653Z,100.00
2018-06-07T09:31:22.228Z,100.00
2018-06-07T09:32:25.048Z,100.00
2018-06-07T09:33:29.331Z,100.00
2018-06-07T09:34:33.073Z,100.00
2018-06-07T09:35:35.896Z,100.00
2018-06-07T09:36:39.089Z,100.00
2018-06-07T09:37:41.976Z,100.00
2018-06-07T09:38:45.560Z,100.00
2018-06-07T09:39:49.020Z,100.00
2018-06-07T09:40:51.800Z,100.00
2018-06-07T09:41:54.642Z,100.00
2018-06-07T09:42:59.315Z,97.28
2018-06-07T09:44:02.243Z,97.20
2018-06-07T09:45:05.270Z,97.14
2018-06-07T09:46:09.137Z,97.77
2018-06-07T09:47:12.012Z,97.30
2018-06-07T09:48:14.831Z,94.31
2018-06-07T09:49:18.080Z,95.14
2018-06-07T09:50:21.077Z,96.29
2018-06-07T09:51:23.988Z,95.26
2018-06-07T09:52:26.800Z,93.30
2018-06-07T09:53:30.551Z,92.70
2018-06-07T09:54:33.367Z,92.05
2018-06-07T09:55:36.451Z,90.68
2018-06-07T09:56:39.293Z,89.78
2018-06-07T09:57:43.290Z,89.52
2018-06-07T09:58:47.234Z,88.39
2018-06-07T09:59:50.944Z,85.64
2018-06-07T10:00:54.552Z,84.49
2018-06-07T10:01:58.633Z,84.23
2018-06-07T10:03:02.253Z,86.48
2018-06-07T10:04:05.116Z,84.37
2018-06-07T10:06:26.763Z,78.09
2018-06-07T10:07:29.562Z,79.03
2018-06-07T10:08:32.726Z,77.86
2018-06-07T10:09:35.819Z,77.47
2018-06-07T10:10:42.378Z,76.78
2018-06-07T10:11:46.455Z,76.44
2018-06-07T10:12:50.060Z,74.91
2018-06-07T10:13:53.650Z,73.43
2018-06-07T10:14:58.356Z,73.60
2018-06-07T10:16:01.862Z,72.65
2018-06-07T10:17:04.761Z,70.89
2018-06-07T10:18:08.598Z,71.88
2018-06-07T10:19:11.383Z,67.32
2018-06-07T10:20:15.369Z,63.90
2018-06-07T10:21:21.677Z,61.04
2018-06-07T10:22:25.549Z,61.59
2018-06-07T10:23:29.234Z,61.64
2018-06-07T10:24:33.704Z,60.95
2018-06-07T10:25:37.425Z,61.38
2018-06-07T10:26:40.214Z,62.36
2018-06-07T10:27:43.632Z,62.31
2018-06-07T10:28:46.612Z,62.47
2018-06-07T10:29:49.429Z,62.26
2018-06-07T10:30:53.771Z,61.04
2018-06-07T10:31:56.703Z,61.05
2018-06-07T10:32:59.561Z,58.14
2018-06-07T10:34:02.753Z,55.48
2018-06-07T10:35:05.719Z,59.28
2018-06-07T10:36:08.556Z,59.82
2018-06-07T10:37:11.585Z,59.27
2018-06-07T10:38:14.393Z,58.04
2018-06-07T10:39:17.314Z,56.09
2018-06-07T10:40:21.390Z,51.34
2018-06-07T10:41:24.316Z,50.60
2018-06-07T10:42:27.143Z,57.20
2018-06-07T10:43:30.065Z,61.46
2018-06-07T10:44:33.533Z,65.92
2018-06-07T10:45:36.638Z,68.31
2018-06-07T10:46:40.990Z,67.72
2018-06-07T10:47:44.520Z,67.56
2018-06-07T10:48:48.348Z,66.83
2018-06-07T10:49:54.625Z,67.54
2018-06-07T10:50:59.318Z,67.03
2018-06-07T10:52:06.491Z,68.04
2018-06-07T10:53:12.701Z,67.62
2018-06-07T10:54:15.520Z,66.69
2018-06-07T10:55:18.401Z,63.60
2018-06-07T10:56:23.681Z,62.06
2018-06-07T10:57:27.448Z,62.37
2018-06-07T10:58:30.558Z,62.58
2018-06-07T10:59:33.788Z,64.01
2018-06-07T11:00:37.658Z,64.86
2018-06-07T11:01:40.637Z,66.12
2018-06-07T11:02:44.127Z,67.22
2018-06-07T11:03:57.441Z,66.64
2018-06-07T11:05:00.710Z,66.23
2018-06-07T11:06:04.514Z,66.10
2018-06-07T11:07:07.336Z,66.17
2018-06-07T11:08:13.291Z,66.27
2018-06-07T11:09:16.863Z,65.53
2018-06-07T11:10:20.628Z,65.29
2018-06-07T11:11:23.921Z,66.31
2018-06-07T11:12:27.346Z,67.56
2018-06-07T11:13:31.155Z,67.95
2018-06-07T11:14:34.106Z,68.37
2018-06-07T11:15:38.632Z,69.08
2018-06-07T11:16:41.727Z,69.45
2018-06-07T11:17:45.936Z,69.95
2018-06-07T11:18:49.299Z,69.61
2018-06-07T11:19:54.050Z,69.60
2018-06-07T11:20:57.002Z,69.31
2018-06-07T11:22:01.089Z,69.33
2018-06-07T11:23:04.631Z,70.07
2018-06-07T11:24:07.692Z,70.16
2018-06-07T11:25:10.624Z,70.18
2018-06-07T11:26:14.617Z,70.51
2018-06-07T11:27:24.488Z,70.35
2018-06-07T11:28:28.007Z,70.45
2018-06-07T11:29:33.436Z,70.83
2018-06-07T11:30:36.743Z,70.69
2018-06-07T11:31:39.652Z,71.59
2018-06-07T11:32:48.981Z,70.60
2018-06-07T11:33:52.127Z,69.73
2018-06-07T11:34:56.229Z,68.86
2018-06-07T11:36:03.220Z,68.97
2018-06-07T11:37:07.955Z,68.26
2018-06-07T11:38:11.481Z,67.73
2018-06-07T11:39:15.884Z,67.05
2018-06-07T11:40:18.689Z,65.79
2018-06-07T11:41:22.116Z,63.21
2018-06-07T11:42:26.128Z,63.90
2018-06-07T11:43:29.336Z,64.18
2018-06-07T11:44:35.055Z,63.88
2018-06-07T11:45:38.314Z,63.56
2018-06-07T11:46:42.208Z,62.99
2018-06-07T11:47:45.568Z,62.79
2018-06-07T11:48:50.718Z,60.20
2018-06-07T11:49:53.975Z,59.50
2018-06-07T11:50:59.339Z,59.28
2018-06-07T11:52:02.153Z,58.98
2018-06-07T11:53:05.808Z,57.77
2018-06-07T11:54:12.383Z,56.81
2018-06-07T11:55:15.802Z,57.08
2018-06-07T11:56:18.842Z,57.47
2018-06-07T11:57:21.805Z,57.19
2018-06-07T11:58:24.632Z,57.83
2018-06-07T11:59:28.436Z,58.98
2018-06-07T12:00:32.182Z,57.24
2018-06-07T12:01:36.686Z,57.83
2018-06-07T12:02:40.501Z,58.11
2018-06-07T12:03:43.418Z,58.87
2018-06-07T12:04:46.422Z,57.24
2018-06-07T12:05:49.310Z,56.54
2018-06-07T12:06:53.050Z,58.05
2018-06-07T12:07:55.884Z,59.32
2018-06-07T12:08:59.106Z,60.54
2018-06-07T12:10:02.435Z,61.68
2018-06-07T12:11:06.469Z,62.53
2018-06-07T12:12:09.938Z,63.16
2018-06-07T12:13:13.091Z,63.28
2018-06-07T12:14:15.973Z,62.84
2018-06-07T12:15:19.898Z,63.78
2018-06-07T12:16:23.295Z,61.64
2018-06-07T12:17:26.121Z,63.63
2018-06-07T12:18:29.430Z,64.42
2018-06-07T12:19:34.752Z,67.89
2018-06-07T12:20:37.683Z,75.45
2018-06-07T12:21:43.706Z,78.66
2018-06-07T12:22:48.591Z,78.01
2018-06-07T12:23:53.210Z,78.27
2018-06-07T12:24:57.903Z,82.88
2018-06-07T12:26:01.499Z,84.86
2018-06-07T12:27:05.157Z,87.33
2018-06-07T12:28:09.687Z,88.21
2018-06-07T12:29:12.577Z,89.69
2018-06-07T12:31:27.223Z,92.96
2018-06-07T12:32:30.246Z,94.67
2018-06-07T12:33:33.405Z,96.41
2018-06-07T12:34:36.270Z,97.19
2018-06-07T12:35:39.650Z,99.25
2018-06-07T12:36:43.484Z,99.47
2018-06-07T12:37:47.368Z,100.00
2018-06-07T12:38:53.613Z,100.00
2018-06-07T12:39:56.516Z,100.00
2018-06-07T12:40:59.335Z,100.00
2018-06-07T12:42:02.158Z,100.00
2018-06-07T12:43:05.424Z,100.00
2018-06-07T12:44:11.043Z,100.00
2018-06-07T12:45:14.541Z,100.00
2018-06-07T12:46:18.225Z,100.00
2018-06-07T12:47:21.661Z,100.00
2018-06-07T12:48:24.510Z,100.00
2018-06-07T12:49:29.251Z,100.00
2018-06-07T12:50:32.727Z,100.00
2018-06-07T12:51:36.243Z,100.00
2018-06-07T12:52:39.037Z,100.00
2018-06-07T12:53:41.950Z,100.00
2018-06-07T12:54:44.936Z,100.00
2018-06-07T12:55:48.055Z,100.00
2018-06-07T12:56:51.586Z,100.00
2018-06-07T12:57:55.915Z,100.00
2018-06-07T12:58:58.788Z,100.00
2018-06-07T13:00:03.573Z,100.00
2018-06-07T13:01:08.180Z,100.00
2018-06-07T13:02:12.081Z,100.00
2018-06-07T13:03:16.537Z,100.00
2018-06-07T13:04:19.465Z,100.00
2018-06-07T13:05:22.777Z,100.00
2018-06-07T13:06:25.625Z,100.00
2018-06-07T13:07:29.760Z,100.00
2018-06-07T13:08:32.892Z,100.00
2018-06-07T13:09:36.659Z,100.00
2018-06-07T13:10:39.865Z,100.00
2018-06-07T13:11:42.995Z,100.00
2018-06-07T13:12:48.105Z,100.00
2018-06-07T13:13:50.936Z,100.00
2018-06-07T13:14:54.396Z,100.00
2018-06-07T13:15:57.232Z,100.00
2018-06-07T13:17:00.200Z,100.00
2018-06-07T13:18:03.052Z,100.00
2018-06-07T13:19:06.458Z,100.00
2018-06-07T13:20:11.714Z,100.00
2018-06-07T13:21:15.169Z,100.00
2018-06-07T13:22:19.954Z,100.00
2018-06-07T13:23:23.263Z,100.00